createdAt,value
2022-08-21T00:02:50.605Z,101751.38
2022-08-21T00:07:43.236Z,101750.59
2022-08-21T00:12:33.256Z,101748.88
2022-08-21T00:17:23.849Z,101746.28
2022-08-21T00:22:15.452Z,101748.91
2022-08-21T00:27:09.274Z,101737.69
2022-08-21T00:32:00.299Z,101742.03
2022-08-21T00:36:50.933Z,101731.66
2022-08-21T00:41:43.015Z,101734.28
2022-08-21T00:46:37.730Z,101736.97
2022-08-21T00:51:32.540Z,101731.78
2022-08-21T00:56:29.888Z,101734.50
2022-08-21T01:01:21.382Z,101729.34
2022-08-21T01:06:15.378Z,101731.06
2022-08-21T01:11:06.854Z,101732.88
2022-08-21T01:16:00.943Z,101741.63
2022-08-21T01:21:15.264Z,101739.97
2022-08-21T01:26:10.000Z,101726.06
2022-08-21T01:31:05.568Z,101735.72
2022-08-21T01:35:56.524Z,101722.72
2022-08-21T01:40:51.692Z,101731.44
2022-08-21T01:45:44.013Z,101727.16
2022-08-21T01:50:34.097Z,101730.69
2022-08-21T01:55:25.908Z,101728.06
2022-08-21T02:00:24.058Z,101712.69
2022-08-21T02:05:16.189Z,101707.28
2022-08-21T02:10:07.081Z,101709.28
2022-08-21T02:14:57.367Z,101707.69
2022-08-21T02:19:49.915Z,101702.53
2022-08-21T02:24:55.203Z,101699.06
2022-08-21T02:29:45.459Z,101701.78
2022-08-21T02:34:35.452Z,101698.34
2022-08-21T02:39:27.902Z,101700.06
2022-08-21T02:44:17.334Z,101709.69
2022-08-21T02:49:06.915Z,101704.50
2022-08-21T02:53:56.860Z,101707.22
2022-08-21T02:58:52.634Z,101700.25
2022-08-21T03:03:47.579Z,101703.72
2022-08-21T03:08:39.090Z,101699.44
2022-08-21T03:13:29.753Z,101693.34
2022-08-21T03:18:22.956Z,101682.94
2022-08-21T03:23:16.780Z,101681.28
2022-08-21T03:28:13.001Z,101683.06
2022-08-21T03:33:04.439Z,101676.13
2022-08-21T03:37:58.238Z,101666.63
2022-08-21T03:42:48.906Z,101668.38
2022-08-21T03:47:38.794Z,101666.66
2022-08-21T03:52:29.909Z,101655.41
2022-08-21T03:57:23.106Z,101659.75
2022-08-21T04:02:14.979Z,101660.66
2022-08-21T04:07:07.553Z,101665.88
2022-08-21T04:11:58.651Z,101679.78
2022-08-21T04:16:53.169Z,101685.91
2022-08-21T04:21:44.729Z,101673.78
2022-08-21T04:26:37.330Z,101685.06
2022-08-21T04:31:29.766Z,101677.22
2022-08-21T04:36:24.514Z,101684.16
2022-08-21T04:41:15.681Z,101694.59
2022-08-21T04:46:06.754Z,101687.66
2022-08-21T04:51:00.833Z,101692.00
2022-08-21T04:55:58.460Z,101698.09
2022-08-21T05:00:50.150Z,101694.59
2022-08-21T05:05:41.260Z,101697.19
2022-08-21T05:10:32.585Z,101701.56
2022-08-21T05:15:26.193Z,101698.09
2022-08-21T05:20:18.022Z,101702.41
2022-08-21T05:25:10.865Z,101707.66
2022-08-21T05:30:01.287Z,101703.31
2022-08-21T05:34:54.765Z,101704.13
2022-08-21T05:40:05.186Z,101705.00
2022-08-21T05:44:57.116Z,101720.63
2022-08-21T05:49:50.452Z,101717.16
2022-08-21T05:54:46.971Z,101715.38
2022-08-21T05:59:38.241Z,101719.72
2022-08-21T06:04:31.226Z,101712.75
2022-08-21T06:09:22.307Z,101702.31
2022-08-21T06:14:20.757Z,101713.56
2022-08-21T06:19:14.381Z,101718.75
2022-08-21T06:24:06.601Z,101717.03
2022-08-21T06:28:58.185Z,101716.13
2022-08-21T06:33:52.497Z,101727.41
2022-08-21T06:38:50.847Z,101705.63
2022-08-21T06:43:42.584Z,101709.91
2022-08-21T06:48:35.807Z,101688.97
2022-08-21T06:53:32.301Z,101709.69
2022-08-21T06:58:23.003Z,101700.19
2022-08-21T07:03:21.822Z,101712.19
2022-08-21T07:08:13.176Z,101706.03
2022-08-21T07:13:06.660Z,101706.78
2022-08-21T07:17:58.118Z,101711.06
2022-08-21T07:22:48.287Z,101700.59
2022-08-21T07:27:38.324Z,101703.13
2022-08-21T07:32:32.166Z,101714.31
2022-08-21T07:37:23.590Z,101722.94
2022-08-21T07:42:14.160Z,101714.09
2022-08-21T08:35:26.564Z,101668.25
2022-08-21T08:40:26.520Z,101678.22
2022-08-21T08:45:23.047Z,101709.72
2022-08-21T08:50:19.715Z,101695.47
2022-08-21T08:55:17.303Z,101707.56
2022-08-21T09:00:11.817Z,101698.88
2022-08-21T09:05:04.220Z,101710.13
2022-08-21T09:10:07.287Z,101715.00
2022-08-21T09:15:09.162Z,101683.72
2022-08-21T09:20:18.373Z,101664.19
2022-08-21T09:25:17.535Z,101705.53
2022-08-21T09:30:11.965Z,101705.00
2022-08-21T09:35:04.385Z,101671.66
2022-08-21T09:39:54.215Z,101706.97
2022-08-21T09:44:45.762Z,101709.59
2022-08-21T09:49:40.987Z,101701.41
2022-08-21T09:54:35.027Z,101706.13
2022-08-21T09:59:36.383Z,101710.63
2022-08-21T10:04:33.205Z,101710.94
2022-08-21T10:09:25.845Z,101692.63
2022-08-21T10:14:24.551Z,101677.44
2022-08-21T10:19:23.580Z,101704.47
2022-08-21T10:24:31.367Z,101670.38
2022-08-21T10:29:41.867Z,101702.38
2022-08-21T10:34:46.487Z,101677.38
2022-08-21T10:39:38.651Z,101668.59
2022-08-21T10:44:40.075Z,101677.72
2022-08-21T10:49:36.382Z,101671.34
2022-08-21T10:54:38.141Z,101672.63
2022-08-21T10:59:38.970Z,101667.22
2022-08-21T11:04:48.919Z,101676.66
2022-08-21T11:09:55.717Z,101657.00
2022-08-21T11:14:59.244Z,101666.75
2022-08-21T11:19:55.176Z,101657.06
2022-08-21T11:24:54.785Z,101658.56
2022-08-21T11:29:48.267Z,101674.41
2022-08-21T11:34:59.039Z,101680.63
2022-08-21T11:39:54.421Z,101685.91
2022-08-21T11:44:49.886Z,101688.00
2022-08-21T11:49:56.849Z,101683.09
2022-08-21T11:54:48.428Z,101685.47
2022-08-21T11:59:40.973Z,101690.66
2022-08-21T12:04:31.917Z,101694.47
2022-08-21T12:09:38.396Z,101684.31
2022-08-21T12:14:27.828Z,101692.41
2022-08-21T12:19:18.294Z,101697.72
2022-08-21T12:24:19.283Z,101696.78
2022-08-21T12:29:15.307Z,101690.03
2022-08-21T12:34:08.219Z,101701.84
2022-08-21T12:38:59.979Z,101691.59
2022-08-21T12:43:51.637Z,101691.75
2022-08-21T12:48:50.834Z,101711.53
2022-08-21T12:53:44.529Z,101707.44
2022-08-21T12:58:35.098Z,101713.34
2022-08-21T13:03:25.423Z,101705.78
2022-08-21T13:08:17.709Z,101706.91
2022-08-21T13:13:12.682Z,101707.19
2022-08-21T13:18:03.817Z,101710.09
2022-08-21T13:22:56.353Z,101714.44
2022-08-21T13:28:02.322Z,101698.03
2022-08-21T13:32:54.259Z,101704.84
2022-08-21T13:37:44.567Z,101710.69
2022-08-21T13:42:36.244Z,101700.88
2022-08-21T13:47:28.404Z,101707.06
2022-08-21T13:52:21.388Z,101697.28
2022-08-21T13:57:19.451Z,101698.19
2022-08-21T14:02:14.721Z,101705.75
2022-08-21T14:07:19.072Z,101710.69
2022-08-21T14:12:23.537Z,101709.38
2022-08-21T14:17:24.300Z,101707.41
2022-08-21T14:22:33.656Z,101714.44
2022-08-21T14:27:26.905Z,101712.75
2022-08-21T14:32:24.459Z,101715.31
2022-08-21T14:37:15.525Z,101706.31
2022-08-21T14:42:07.920Z,101705.91
2022-08-21T14:46:58.814Z,101710.56
2022-08-21T14:51:54.718Z,101695.66
2022-08-21T14:56:44.392Z,101694.09
2022-08-21T15:01:38.155Z,101703.56
2022-08-21T15:06:27.864Z,101699.19
2022-08-21T15:11:42.723Z,101701.22
2022-08-21T15:16:31.257Z,101698.75
2022-08-21T15:21:23.263Z,101696.34
2022-08-21T15:26:14.982Z,101703.84
2022-08-21T15:31:04.763Z,101694.63
2022-08-21T15:35:54.187Z,101692.38
2022-08-21T15:40:52.048Z,101690.91
2022-08-21T15:45:42.010Z,101695.25
2022-08-21T15:50:33.115Z,101702.63
2022-08-21T15:55:22.747Z,101698.72
2022-08-21T16:00:19.052Z,101712.16
2022-08-21T16:05:11.388Z,101708.88
2022-08-21T16:10:04.373Z,101705.69
2022-08-21T16:14:54.739Z,101712.88
2022-08-21T16:19:47.304Z,101712.22
2022-08-21T16:24:37.028Z,101706.16
2022-08-21T16:29:26.753Z,101702.06
2022-08-21T16:34:19.266Z,101710.94
2022-08-21T16:39:12.375Z,101702.41
2022-08-21T16:44:01.950Z,101691.06
2022-08-21T16:48:51.489Z,101693.69
2022-08-21T16:53:41.087Z,101700.09
2022-08-21T16:58:34.316Z,101694.22
2022-08-21T17:03:28.901Z,101696.31
2022-08-21T17:08:18.494Z,101694.81
2022-08-21T17:13:09.809Z,101691.56
2022-08-21T17:18:02.365Z,101692.63
2022-08-21T17:22:52.033Z,101693.59
2022-08-21T17:27:44.049Z,101688.41
2022-08-21T17:32:33.966Z,101690.97
2022-08-21T17:37:29.182Z,101689.38
2022-08-21T17:42:19.425Z,101690.22
2022-08-21T17:47:10.288Z,101688.50
2022-08-21T17:52:00.290Z,101685.16
2022-08-21T17:56:53.933Z,101685.34
2022-08-21T18:01:46.901Z,101683.75
2022-08-21T18:06:36.424Z,101682.13
2022-08-21T18:11:27.231Z,101684.78
2022-08-21T18:16:19.958Z,101690.81
2022-08-21T18:21:10.438Z,101690.06
2022-08-21T18:26:01.169Z,101684.88
2022-08-21T18:30:52.135Z,101684.13
2022-08-21T18:35:44.714Z,101684.28
2022-08-21T18:40:36.022Z,101680.81
2022-08-21T18:45:25.940Z,101686.19
2022-08-21T18:50:22.111Z,101685.34
2022-08-21T18:55:18.243Z,101686.25
2022-08-21T19:00:13.849Z,101694.13
2022-08-21T19:05:05.335Z,101691.63
2022-08-21T19:10:24.331Z,101696.16
2022-08-21T19:15:09.466Z,101697.13
2022-08-21T19:20:02.009Z,101705.13
2022-08-21T19:24:57.739Z,101703.44
2022-08-21T19:29:53.855Z,101708.75
2022-08-21T19:34:45.967Z,101712.91
2022-08-21T19:39:43.576Z,101700.94
2022-08-21T19:44:39.551Z,101707.25
2022-08-21T19:49:33.312Z,101706.69
2022-08-21T19:54:27.186Z,101704.31
2022-08-21T19:59:17.831Z,101714.06
2022-08-21T20:04:11.770Z,101708.88
2022-08-21T20:09:10.097Z,101714.03
2022-08-21T20:14:02.819Z,101710.50
2022-08-21T20:18:52.366Z,101710.66
2022-08-21T20:23:49.172Z,101716.06
2022-08-21T20:28:45.330Z,101715.19
2022-08-21T20:33:39.317Z,101713.47
2022-08-21T20:38:29.066Z,101712.78
2022-08-21T20:43:18.989Z,101716.25
2022-08-21T20:48:14.535Z,101716.34
2022-08-21T20:53:10.624Z,101712.97
2022-08-21T20:58:03.355Z,101715.50
2022-08-21T21:02:56.382Z,101707.81
2022-08-21T21:08:03.406Z,101707.31
2022-08-21T21:12:58.513Z,101714.53
2022-08-21T21:17:50.372Z,101719.88
2022-08-21T21:22:41.544Z,101718.19
2022-08-21T21:27:36.031Z,101717.38
2022-08-21T21:32:28.443Z,101714.75
2022-08-21T21:37:25.562Z,101716.59
2022-08-21T21:47:41.775Z,101716.59
2022-08-21T21:52:40.049Z,101717.56
2022-08-21T21:57:45.111Z,101713.22
2022-08-21T22:02:46.278Z,101717.53
2022-08-21T22:12:57.241Z,101721.84
2022-08-21T22:18:06.874Z,101711.38
2022-08-21T22:23:00.694Z,101707.13
2022-08-21T22:27:52.955Z,101716.78
2022-08-21T22:32:45.787Z,101717.63
2022-08-21T22:37:42.002Z,101716.78
2022-08-21T22:42:33.699Z,101718.56
2022-08-21T22:47:25.812Z,101713.31
2022-08-21T22:52:24.422Z,101712.47
2022-08-21T22:57:28.681Z,101710.75
2022-08-21T23:02:24.981Z,101710.84
2022-08-21T23:07:14.763Z,101709.13
2022-08-21T23:12:21.196Z,101708.25
2022-08-21T23:17:15.995Z,101711.84
2022-08-21T23:22:13.032Z,101704.13
2022-08-21T23:27:11.188Z,101711.22
2022-08-21T23:32:04.232Z,101702.47
2022-08-21T23:37:15.277Z,101699.03
2022-08-21T23:42:08.859Z,101690.28
2022-08-21T23:47:06.194Z,101693.00
2022-08-21T23:52:10.495Z,101692.13
2022-08-21T23:57:08.240Z,101696.66
